sensor_id;sensor_type;location;lat;lon;timestamp;pressure;altitude;pressure_sealevel;temperature;humidity
3132;BME280;62090;52.330;9.104;2022-11-04T00:00:21;99453.25;;;13.46;98.68
3132;BME280;62090;52.330;9.104;2022-11-04T00:02:56;99441.22;;;13.58;98.09
3132;BME280;62090;52.330;9.104;2022-11-04T00:05:25;99450.41;;;13.77;97.41
3132;BME280;62090;52.330;9.104;2022-11-04T00:07:58;99401.16;;;13.49;97.07
3132;BME280;62090;52.330;9.104;2022-11-04T00:10:40;99429.25;;;13.58;97.28
3132;BME280;62090;52.330;9.104;2022-11-04T00:13:22;99461.50;;;13.79;97.38
3132;BME280;62090;52.330;9.104;2022-11-04T00:15:52;99476.00;;;13.77;97.29
3132;BME280;62090;52.330;9.104;2022-11-04T00:18:35;99427.66;;;13.43;97.77
3132;BME280;62090;52.330;9.104;2022-11-04T00:21:04;99489.66;;;13.77;98.09
3132;BME280;62090;52.330;9.104;2022-11-04T00:23:49;99482.84;;;13.78;97.92
3132;BME280;62090;52.330;9.104;2022-11-04T00:26:31;99485.41;;;13.75;98.11
3132;BME280;62090;52.330;9.104;2022-11-04T00:29:14;99473.53;;;13.69;98.20
3132;BME280;62090;52.330;9.104;2022-11-04T00:31:43;99482.13;;;13.61;98.60
3132;BME280;62090;52.330;9.104;2022-11-04T00:34:26;99479.66;;;13.51;100.00
3132;BME280;62090;52.330;9.104;2022-11-04T00:36:55;99493.25;;;13.53;100.00
3132;BME280;62090;52.330;9.104;2022-11-04T00:39:28;99477.91;;;13.53;100.00
3132;BME280;62090;52.330;9.104;2022-11-04T00:41:57;99489.03;;;13.52;100.00
3132;BME280;62090;52.330;9.104;2022-11-04T00:44:27;99461.91;;;13.29;100.00
3132;BME280;62090;52.330;9.104;2022-11-04T00:46:57;99469.56;;;13.30;100.00
3132;BME280;62090;52.330;9.104;2022-11-04T00:49:27;99456.88;;;13.15;100.00
3132;BME280;62090;52.330;9.104;2022-11-04T00:51:57;99488.25;;;13.38;100.00
3132;BME280;62090;52.330;9.104;2022-11-04T00:54:29;99468.56;;;13.52;100.00
3132;BME280;62090;52.330;9.104;2022-11-04T00:56:59;99477.03;;;13.58;100.00
3132;BME280;62090;52.330;9.104;2022-11-04T00:59:29;99449.84;;;13.44;100.00
3132;BME280;62090;52.330;9.104;2022-11-04T01:01:58;99469.44;;;13.45;100.00
3132;BME280;62090;52.330;9.104;2022-11-04T01:04:29;99464.34;;;13.45;100.00
3132;BME280;62090;52.330;9.104;2022-11-04T01:06:59;99479.72;;;13.38;100.00
3132;BME280;62090;52.330;9.104;2022-11-04T01:09:31;99497.63;;;13.41;100.00
3132;BME280;62090;52.330;9.104;2022-11-04T01:12:01;99512.16;;;13.37;100.00
3132;BME280;62090;52.330;9.104;2022-11-04T01:14:31;99490.88;;;13.29;100.00
3132;BME280;62090;52.330;9.104;2022-11-04T01:17:01;99500.97;;;13.50;100.00
3132;BME280;62090;52.330;9.104;2022-11-04T01:19:31;99492.41;;;13.58;100.00
3132;BME280;62090;52.330;9.104;2022-11-04T01:22:00;99477.75;;;13.72;100.00
3132;BME280;62090;52.330;9.104;2022-11-04T01:24:33;99478.72;;;13.62;100.00
3132;BME280;62090;52.330;9.104;2022-11-04T01:27:03;99486.38;;;13.62;100.00
3132;BME280;62090;52.330;9.104;2022-11-04T01:29:32;99476.34;;;13.36;100.00
3132;BME280;62090;52.330;9.104;2022-11-04T01:32:02;99489.19;;;13.31;100.00
3132;BME280;62090;52.330;9.104;2022-11-04T01:34:32;99495.16;;;13.27;100.00
3132;BME280;62090;52.330;9.104;2022-11-04T01:37:09;99464.56;;;13.15;100.00
3132;BME280;62090;52.330;9.104;2022-11-04T01:39:41;99482.44;;;13.18;100.00
3132;BME280;62090;52.330;9.104;2022-11-04T01:42:13;99495.16;;;13.27;100.00
3132;BME280;62090;52.330;9.104;2022-11-04T01:44:52;99505.38;;;13.29;100.00
3132;BME280;62090;52.330;9.104;2022-11-04T01:47:30;99516.47;;;13.29;100.00
3132;BME280;62090;52.330;9.104;2022-11-04T01:50:06;99509.72;;;13.19;100.00
3132;BME280;62090;52.330;9.104;2022-11-04T01:52:41;99513.88;;;13.34;100.00
3132;BME280;62090;52.330;9.104;2022-11-04T01:55:19;99511.31;;;13.35;100.00
3132;BME280;62090;52.330;9.104;2022-11-04T01:57:51;99522.38;;;13.40;100.00
3132;BME280;62090;52.330;9.104;2022-11-04T02:00:23;99482.38;;;13.27;99.93
3132;BME280;62090;52.330;9.104;2022-11-04T02:02:57;99518.97;;;13.41;99.44
3132;BME280;62090;52.330;9.104;2022-11-04T02:05:29;99519.78;;;13.46;99.55
3132;BME280;62090;52.330;9.104;2022-11-04T02:08:02;99528.28;;;13.50;99.39
3132;BME280;62090;52.330;9.104;2022-11-04T02:10:35;99518.06;;;13.45;99.32
3132;BME280;62090;52.330;9.104;2022-11-04T02:13:05;99514.75;;;13.31;99.27
3132;BME280;62090;52.330;9.104;2022-11-04T02:15:37;99524.00;;;13.52;98.63
3132;BME280;62090;52.330;9.104;2022-11-04T02:18:19;99530.81;;;13.53;97.51
3132;BME280;62090;52.330;9.104;2022-11-04T02:21:25;99557.19;;;13.63;96.38
3132;BME280;62090;52.330;9.104;2022-11-04T02:27:31;99571.03;;;13.34;94.21
3132;BME280;62090;52.330;9.104;2022-11-04T02:30:09;99575.16;;;13.55;93.32
3132;BME280;62090;52.330;9.104;2022-11-04T02:33:11;99576.88;;;13.54;92.25
3132;BME280;62090;52.330;9.104;2022-11-04T02:35:49;99575.22;;;13.47;91.73
3132;BME280;62090;52.330;9.104;2022-11-04T02:38:31;99580.34;;;13.46;92.23
3132;BME280;62090;52.330;9.104;2022-11-04T02:41:09;99602.47;;;13.54;90.81
3132;BME280;62090;52.330;9.104;2022-11-04T02:43:48;99602.53;;;13.38;88.62
3132;BME280;62090;52.330;9.104;2022-11-04T02:46:32;99584.66;;;13.36;88.23
3132;BME280;62090;52.330;9.104;2022-11-04T02:49:07;99551.53;;;13.15;86.13
3132;BME280;62090;52.330;9.104;2022-11-04T02:51:45;99565.16;;;13.11;87.75
3132;BME280;62090;52.330;9.104;2022-11-04T02:54:21;99569.44;;;13.15;87.78
3132;BME280;62090;52.330;9.104;2022-11-04T02:56:55;99568.56;;;13.11;88.24
3132;BME280;62090;52.330;9.104;2022-11-04T02:59:32;99568.53;;;13.24;87.65
3132;BME280;62090;52.330;9.104;2022-11-04T03:02:09;99574.47;;;13.27;87.32
3132;BME280;62090;52.330;9.104;2022-11-04T03:04:44;99560.84;;;13.22;87.37
3132;BME280;62090;52.330;9.104;2022-11-04T03:07:19;99571.13;;;13.07;88.74
3132;BME280;62090;52.330;9.104;2022-11-04T03:09:54;99587.38;;;13.00;89.11
3132;BME280;62090;52.330;9.104;2022-11-04T03:12:29;99582.22;;;13.09;87.53
3132;BME280;62090;52.330;9.104;2022-11-04T03:15:04;99590.75;;;13.13;88.33
3132;BME280;62090;52.330;9.104;2022-11-04T03:17:41;99586.47;;;13.13;87.74
3132;BME280;62090;52.330;9.104;2022-11-04T03:20:19;99588.22;;;13.00;87.48
3132;BME280;62090;52.330;9.104;2022-11-04T03:22:50;99607.78;;;13.14;87.82
3132;BME280;62090;52.330;9.104;2022-11-04T03:25:29;99605.22;;;13.07;88.04
3132;BME280;62090;52.330;9.104;2022-11-04T03:28:04;99569.53;;;12.82;88.50
3132;BME280;62090;52.330;9.104;2022-11-04T03:30:38;99608.72;;;12.87;88.83
3132;BME280;62090;52.330;9.104;2022-11-04T03:33:18;99634.28;;;12.87;89.83
3132;BME280;62090;52.330;9.104;2022-11-04T03:35:51;99642.81;;;12.80;90.16
3132;BME280;62090;52.330;9.104;2022-11-04T03:38:21;99652.16;;;12.85;90.67
3132;BME280;62090;52.330;9.104;2022-11-04T03:40:51;99663.25;;;12.89;89.81
3132;BME280;62090;52.330;9.104;2022-11-04T03:43:24;99646.25;;;12.79;89.62
3132;BME280;62090;52.330;9.104;2022-11-04T03:45:54;99611.34;;;12.52;89.51
3132;BME280;62090;52.330;9.104;2022-11-04T03:48:27;99665.78;;;12.92;88.51
3132;BME280;62090;52.330;9.104;2022-11-04T03:50:58;99678.59;;;12.95;88.98
3132;BME280;62090;52.330;9.104;2022-11-04T03:53:29;99675.19;;;12.87;89.51
3132;BME280;62090;52.330;9.104;2022-11-04T03:56:15;99681.13;;;12.96;89.30
3132;BME280;62090;52.330;9.104;2022-11-04T03:58:55;99666.69;;;12.83;88.34
3132;BME280;62090;52.330;9.104;2022-11-04T04:01:37;99695.66;;;12.90;88.57
3132;BME280;62090;52.330;9.104;2022-11-04T04:04:15;99704.13;;;13.01;88.06
3132;BME280;62090;52.330;9.104;2022-11-04T04:06:49;99699.88;;;12.98;88.25
3132;BME280;62090;52.330;9.104;2022-11-04T04:09:24;99712.66;;;13.09;88.13
3132;BME280;62090;52.330;9.104;2022-11-04T04:12:02;99708.41;;;13.00;87.95
3132;BME280;62090;52.330;9.104;2022-11-04T04:14:38;99714.34;;;13.11;87.82
3132;BME280;62090;52.330;9.104;2022-11-04T04:17:14;99716.06;;;13.14;87.51
3132;BME280;62090;52.330;9.104;2022-11-04T04:19:57;99701.56;;;13.01;87.41
3132;BME280;62090;52.330;9.104;2022-11-04T04:22:29;99714.34;;;13.10;86.27
3132;BME280;62090;52.330;9.104;2022-11-04T04:25:02;99706.72;;;12.87;86.96
3132;BME280;62090;52.330;9.104;2022-11-04T04:27:57;99734.84;;;12.70;88.29
3132;BME280;62090;52.330;9.104;2022-11-04T04:30:28;99734.84;;;12.58;87.99
3132;BME280;62090;52.330;9.104;2022-11-04T04:33:00;99727.19;;;12.55;88.13
3132;BME280;62090;52.330;9.104;2022-11-04T04:35:39;99733.16;;;12.65;87.73
3132;BME280;62090;52.330;9.104;2022-11-04T04:38:16;99727.19;;;12.43;86.81
3132;BME280;62090;52.330;9.104;2022-11-04T04:41:02;99726.34;;;12.35;88.55
3132;BME280;62090;52.330;9.104;2022-11-04T04:43:46;99688.81;;;11.98;88.44
3132;BME280;62090;52.330;9.104;2022-11-04T04:46:31;99732.28;;;12.14;89.44
3132;BME280;62090;52.330;9.104;2022-11-04T04:49:05;99733.09;;;12.09;89.75
3132;BME280;62090;52.330;9.104;2022-11-04T04:51:40;99739.09;;;12.20;89.69
3132;BME280;62090;52.330;9.104;2022-11-04T04:54:12;99740.81;;;12.21;89.16
3132;BME280;62090;52.330;9.104;2022-11-04T04:56:42;99705.00;;;11.94;89.15
3132;BME280;62090;52.330;9.104;2022-11-04T04:59:11;99728.84;;;12.17;88.15
3132;BME280;62090;52.330;9.104;2022-11-04T05:01:41;99743.34;;;12.30;88.31
3132;BME280;62090;52.330;9.104;2022-11-04T05:04:11;99715.22;;;12.09;88.28
3132;BME280;62090;52.330;9.104;2022-11-04T05:06:43;99737.34;;;12.07;88.74
3132;BME280;62090;52.330;9.104;2022-11-04T05:09:13;99725.38;;;11.81;89.16
3132;BME280;62090;52.330;9.104;2022-11-04T05:11:43;99731.31;;;11.77;90.33
3132;BME280;62090;52.330;9.104;2022-11-04T05:14:13;99745.81;;;11.91;90.91
3132;BME280;62090;52.330;9.104;2022-11-04T05:16:43;99753.50;;;11.94;90.15
3132;BME280;62090;52.330;9.104;2022-11-04T05:19:13;99761.19;;;12.00;90.43
3132;BME280;62090;52.330;9.104;2022-11-04T05:21:46;99775.63;;;12.01;90.34
3132;BME280;62090;52.330;9.104;2022-11-04T05:24:15;99774.78;;;11.97;89.91
3132;BME280;62090;52.330;9.104;2022-11-04T05:26:45;99781.63;;;12.13;89.96
3132;BME280;62090;52.330;9.104;2022-11-04T05:29:15;99756.91;;;11.99;89.47
3132;BME280;62090;52.330;9.104;2022-11-04T05:31:45;99802.97;;;12.35;88.52
3132;BME280;62090;52.330;9.104;2022-11-04T05:34:15;99762.91;;;12.17;88.77
3132;BME280;62090;52.330;9.104;2022-11-04T05:36:47;99814.06;;;12.60;87.89
3132;BME280;62090;52.330;9.104;2022-11-04T05:39:17;99809.81;;;12.69;87.70
3132;BME280;62090;52.330;9.104;2022-11-04T05:41:47;99804.72;;;12.65;86.85
3132;BME280;62090;52.330;9.104;2022-11-04T05:44:17;99802.97;;;12.53;87.55
3132;BME280;62090;52.330;9.104;2022-11-04T05:46:48;99797.06;;;12.63;86.40
3132;BME280;62090;52.330;9.104;2022-11-04T05:49:19;99802.16;;;12.60;86.49
3132;BME280;62090;52.330;9.104;2022-11-04T05:51:51;99797.03;;;12.56;85.65
3132;BME280;62090;52.330;9.104;2022-11-04T05:54:21;99812.38;;;12.65;86.02
3132;BME280;62090;52.330;9.104;2022-11-04T05:56:53;99800.44;;;12.53;85.70
3132;BME280;62090;52.330;9.104;2022-11-04T05:59:24;99820.91;;;12.73;85.07
3132;BME280;62090;52.330;9.104;2022-11-04T06:01:55;99835.38;;;12.80;85.26
3132;BME280;62090;52.330;9.104;2022-11-04T06:04:26;99813.25;;;12.73;84.80
3132;BME280;62090;52.330;9.104;2022-11-04T06:06:59;99787.66;;;12.59;84.64
3132;BME280;62090;52.330;9.104;2022-11-04T06:09:30;99823.47;;;12.72;85.47
3132;BME280;62090;52.330;9.104;2022-11-04T06:12:10;99808.97;;;12.60;86.85
3132;BME280;62090;52.330;9.104;2022-11-04T06:14:42;99792.78;;;12.62;86.27
3132;BME280;62090;52.330;9.104;2022-11-04T06:17:13;99801.28;;;12.64;86.08
3132;BME280;62090;52.330;9.104;2022-11-04T06:19:45;99803.00;;;12.41;86.91
3132;BME280;62090;52.330;9.104;2022-11-04T06:22:19;99826.00;;;12.50;87.44
3132;BME280;62090;52.330;9.104;2022-11-04T06:24:50;99851.50;;;12.38;87.37
3132;BME280;62090;52.330;9.104;2022-11-04T06:27:19;99847.22;;;12.30;87.75
3132;BME280;62090;52.330;9.104;2022-11-04T06:29:50;99841.28;;;12.35;87.69
3132;BME280;62090;52.330;9.104;2022-11-04T06:32:21;99849.72;;;12.10;87.43
3132;BME280;62090;52.330;9.104;2022-11-04T06:34:51;99861.69;;;12.20;87.29
3132;BME280;62090;52.330;9.104;2022-11-04T06:37:24;99810.38;;;11.68;87.97
3132;BME280;62090;52.330;9.104;2022-11-04T06:39:54;99866.63;;;11.83;89.67
3132;BME280;62090;52.330;9.104;2022-11-04T06:42:24;99879.28;;;11.68;89.71
3132;BME280;62090;52.330;9.104;2022-11-04T06:44:55;99874.09;;;11.58;90.25
3132;BME280;62090;52.330;9.104;2022-11-04T06:47:25;99877.53;;;11.64;90.48
3132;BME280;62090;52.330;9.104;2022-11-04T06:49:55;99839.13;;;11.43;90.18
3132;BME280;62090;52.330;9.104;2022-11-04T06:52:28;99861.34;;;11.64;89.50
3132;BME280;62090;52.330;9.104;2022-11-04T06:55:07;99884.47;;;11.77;90.50
3132;BME280;62090;52.330;9.104;2022-11-04T06:57:39;99889.53;;;11.73;90.30
3132;BME280;62090;52.330;9.104;2022-11-04T07:00:11;99840.00;;;11.48;89.82
3132;BME280;62090;52.330;9.104;2022-11-04T07:02:41;99897.25;;;11.82;89.54
3132;BME280;62090;52.330;9.104;2022-11-04T07:05:11;99915.22;;;11.99;88.69
3132;BME280;62090;52.330;9.104;2022-11-04T07:07:44;99902.44;;;11.97;87.43
3132;BME280;62090;52.330;9.104;2022-11-04T07:10:14;99907.59;;;12.09;87.37
3132;BME280;62090;52.330;9.104;2022-11-04T07:12:45;99888.06;;;12.16;86.82
3132;BME280;62090;52.330;9.104;2022-11-04T07:15:17;99879.56;;;12.20;86.42
3132;BME280;62090;52.330;9.104;2022-11-04T07:17:54;99911.13;;;12.37;85.96
3132;BME280;62090;52.330;9.104;2022-11-04T07:20:24;99895.75;;;12.28;85.23
3132;BME280;62090;52.330;9.104;2022-11-04T07:22:56;99896.59;;;12.27;85.96
3132;BME280;62090;52.330;9.104;2022-11-04T07:25:27;99901.69;;;12.18;86.09
3132;BME280;62090;52.330;9.104;2022-11-04T07:27:58;99922.13;;;12.24;86.39
3132;BME280;62090;52.330;9.104;2022-11-04T07:30:29;99918.75;;;12.25;86.89
3132;BME280;62090;52.330;9.104;2022-11-04T07:32:59;99930.66;;;12.24;87.14
3132;BME280;62090;52.330;9.104;2022-11-04T07:35:30;99935.78;;;12.26;86.99
3132;BME280;62090;52.330;9.104;2022-11-04T07:38:02;99929.03;;;12.48;86.56
3132;BME280;62090;52.330;9.104;2022-11-04T07:40:33;99906.00;;;12.39;86.00
3132;BME280;62090;52.330;9.104;2022-11-04T07:43:05;99916.25;;;12.40;86.44
3132;BME280;62090;52.330;9.104;2022-11-04T07:45:36;99926.50;;;12.51;86.21
3132;BME280;62090;52.330;9.104;2022-11-04T07:48:07;99928.22;;;12.47;86.03
3132;BME280;62090;52.330;9.104;2022-11-04T07:50:39;99934.19;;;12.52;85.71
3132;BME280;62090;52.330;9.104;2022-11-04T07:53:12;99936.72;;;12.55;85.54
3132;BME280;62090;52.330;9.104;2022-11-04T07:55:43;99920.50;;;12.43;85.98
3132;BME280;62090;52.330;9.104;2022-11-04T07:58:15;99936.72;;;12.54;85.66
3132;BME280;62090;52.330;9.104;2022-11-04T08:00:46;99922.25;;;12.54;85.12
3132;BME280;62090;52.330;9.104;2022-11-04T08:03:16;99939.31;;;12.69;84.98
3132;BME280;62090;52.330;9.104;2022-11-04T08:05:46;99938.50;;;12.81;84.29
3132;BME280;62090;52.330;9.104;2022-11-04T08:08:19;99943.63;;;12.81;84.32
3132;BME280;62090;52.330;9.104;2022-11-04T08:10:51;99945.28;;;12.62;84.99
3132;BME280;62090;52.330;9.104;2022-11-04T08:13:26;99955.47;;;12.47;85.98
3132;BME280;62090;52.330;9.104;2022-11-04T08:15:56;99954.63;;;12.55;86.43
3132;BME280;62090;52.330;9.104;2022-11-04T08:18:30;99948.56;;;12.34;86.40
3132;BME280;62090;52.330;9.104;2022-11-04T08:21:01;99963.94;;;12.44;86.68
3132;BME280;62090;52.330;9.104;2022-11-04T08:23:36;99964.84;;;12.52;86.87
3132;BME280;62090;52.330;9.104;2022-11-04T08:26:08;99982.75;;;12.55;86.33
3132;BME280;62090;52.330;9.104;2022-11-04T08:28:39;99963.94;;;12.44;86.35
3132;BME280;62090;52.330;9.104;2022-11-04T08:31:13;99965.63;;;12.36;86.66
3132;BME280;62090;52.330;9.104;2022-11-04T08:33:45;99987.84;;;12.55;86.68
3132;BME280;62090;52.330;9.104;2022-11-04T08:36:18;99984.47;;;12.65;86.30
3132;BME280;62090;52.330;9.104;2022-11-04T08:38:51;99985.31;;;12.60;86.19
3132;BME280;62090;52.330;9.104;2022-11-04T08:41:24;99983.56;;;12.54;86.37
3132;BME280;62090;52.330;9.104;2022-11-04T08:43:56;100001.53;;;12.68;86.59
3132;BME280;62090;52.330;9.104;2022-11-04T08:46:28;99982.78;;;12.63;86.23
3132;BME280;62090;52.330;9.104;2022-11-04T08:49:00;99997.28;;;12.75;85.62
3132;BME280;62090;52.330;9.104;2022-11-04T08:51:39;99995.63;;;12.83;85.24
3132;BME280;62090;52.330;9.104;2022-11-04T08:54:12;100001.63;;;12.95;84.36
3132;BME280;62090;52.330;9.104;2022-11-04T08:56:42;100003.28;;;12.83;84.01
3132;BME280;62090;52.330;9.104;2022-11-04T08:59:13;100005.81;;;12.77;84.74
3132;BME280;62090;52.330;9.104;2022-11-04T09:01:44;99999.84;;;12.72;85.04
3132;BME280;62090;52.330;9.104;2022-11-04T09:04:15;100004.94;;;12.70;85.52
3132;BME280;62090;52.330;9.104;2022-11-04T09:06:46;99968.28;;;12.57;85.14
3132;BME280;62090;52.330;9.104;2022-11-04T09:09:20;100000.72;;;12.81;84.11
3132;BME280;62090;52.330;9.104;2022-11-04T09:11:50;99999.91;;;12.91;84.21
3132;BME280;62090;52.330;9.104;2022-11-04T09:14:20;100000.78;;;13.01;82.68
3132;BME280;62090;52.330;9.104;2022-11-04T09:16:51;100011.09;;;13.16;81.75
3132;BME280;62090;52.330;9.104;2022-11-04T09:19:21;99978.59;;;12.88;81.66
3132;BME280;62090;52.330;9.104;2022-11-04T09:21:54;100004.25;;;13.12;81.69
3132;BME280;62090;52.330;9.104;2022-11-04T09:24:28;100007.69;;;13.16;81.58
3132;BME280;62090;52.330;9.104;2022-11-04T09:26:59;100010.22;;;13.17;81.51
3132;BME280;62090;52.330;9.104;2022-11-04T09:29:29;100002.50;;;12.99;83.06
3132;BME280;62090;52.330;9.104;2022-11-04T09:31:59;100005.00;;;12.82;85.01
3132;BME280;62090;52.330;9.104;2022-11-04T09:34:30;99986.25;;;12.83;84.76
3132;BME280;62090;52.330;9.104;2022-11-04T09:37:00;100022.97;;;13.03;83.16
3132;BME280;62090;52.330;9.104;2022-11-04T09:39:34;100023.00;;;13.11;83.50
3132;BME280;62090;52.330;9.104;2022-11-04T09:42:17;100022.19;;;13.15;83.03
3132;BME280;62090;52.330;9.104;2022-11-04T09:44:55;100016.22;;;13.25;82.45
3132;BME280;62090;52.330;9.104;2022-11-04T09:47:49;100031.63;;;13.46;82.40
3132;BME280;62090;52.330;9.104;2022-11-04T09:50:23;100003.44;;;13.36;83.40
3132;BME280;62090;52.330;9.104;2022-11-04T09:53:02;100035.00;;;13.39;83.02
3132;BME280;62090;52.330;9.104;2022-11-04T09:55:44;100030.78;;;13.69;83.23
3132;BME280;62090;52.330;9.104;2022-11-04T09:58:16;100029.91;;;13.67;82.98
3132;BME280;62090;52.330;9.104;2022-11-04T10:00:53;100023.09;;;13.52;81.76
3132;BME280;62090;52.330;9.104;2022-11-04T10:03:46;99984.69;;;13.44;79.59
3132;BME280;62090;52.330;9.104;2022-11-04T10:06:28;100035.03;;;13.82;78.95
3132;BME280;62090;52.330;9.104;2022-11-04T10:09:22;100016.28;;;13.72;77.37
3132;BME280;62090;52.330;9.104;2022-11-04T10:12:03;100027.34;;;13.82;78.01
3132;BME280;62090;52.330;9.104;2022-11-04T10:14:59;100018.81;;;13.77;77.46
3132;BME280;62090;52.330;9.104;2022-11-04T10:17:53;100015.41;;;13.75;76.81
3132;BME280;62090;52.330;9.104;2022-11-04T10:20:36;99978.72;;;13.53;77.69
3132;BME280;62090;52.330;9.104;2022-11-04T10:23:21;99970.19;;;13.56;78.19
3132;BME280;62090;52.330;9.104;2022-11-04T10:25:58;100018.81;;;13.89;78.23
3132;BME280;62090;52.330;9.104;2022-11-04T10:28:38;100028.19;;;14.10;77.30
3132;BME280;62090;52.330;9.104;2022-11-04T10:31:13;100013.66;;;14.01;77.78
3132;BME280;62090;52.330;9.104;2022-11-04T10:33:49;100034.16;;;14.18;76.89
3132;BME280;62090;52.330;9.104;2022-11-04T10:36:20;100032.47;;;14.06;76.31
3132;BME280;62090;52.330;9.104;2022-11-04T10:38:53;100036.72;;;14.12;75.57
3132;BME280;62090;52.330;9.104;2022-11-04T10:41:29;100040.16;;;14.17;74.88
3132;BME280;62090;52.330;9.104;2022-11-04T10:44:15;100031.63;;;13.98;74.28
3132;BME280;62090;52.330;9.104;2022-11-04T10:46:52;100029.91;;;13.82;74.53
3132;BME280;62090;52.330;9.104;2022-11-04T10:49:38;100056.38;;;13.94;74.43
3132;BME280;62090;52.330;9.104;2022-11-04T10:52:32;100064.06;;;13.94;74.70
3132;BME280;62090;52.330;9.104;2022-11-04T10:55:13;100070.06;;;13.95;74.02
3132;BME280;62090;52.330;9.104;2022-11-04T10:57:45;100074.31;;;13.94;74.96
3132;BME280;62090;52.330;9.104;2022-11-04T11:00:36;100087.09;;;13.96;74.56
3132;BME280;62090;52.330;9.104;2022-11-04T11:03:28;100089.66;;;13.96;74.48
3132;BME280;62090;52.330;9.104;2022-11-04T11:06:13;100091.41;;;13.95;74.29
3132;BME280;62090;52.330;9.104;2022-11-04T11:08:45;100083.72;;;14.00;74.96
3132;BME280;62090;52.330;9.104;2022-11-04T11:11:34;100101.63;;;14.12;74.96
3132;BME280;62090;52.330;9.104;2022-11-04T11:14:15;100083.72;;;14.05;75.01
3132;BME280;62090;52.330;9.104;2022-11-04T11:16:48;100072.63;;;13.89;75.80
3132;BME280;62090;52.330;9.104;2022-11-04T11:19:22;100065.78;;;14.00;75.73
3132;BME280;62090;52.330;9.104;2022-11-04T11:21:55;100090.53;;;14.31;74.85
3132;BME280;62090;52.330;9.104;2022-11-04T11:24:27;100063.19;;;14.26;74.32
3132;BME280;62090;52.330;9.104;2022-11-04T11:27:08;100066.59;;;14.40;72.26
3132;BME280;62090;52.330;9.104;2022-11-04T11:29:45;100050.38;;;14.26;72.43
3132;BME280;62090;52.330;9.104;2022-11-04T11:32:29;100081.94;;;14.55;73.54
3132;BME280;62090;52.330;9.104;2022-11-04T11:35:02;100080.25;;;14.57;72.81
3132;BME280;62090;52.330;9.104;2022-11-04T11:37:38;100042.69;;;14.43;72.76
3132;BME280;62090;52.330;9.104;2022-11-04T11:40:23;100074.25;;;14.63;72.17
3132;BME280;62090;52.330;9.104;2022-11-04T11:42:55;100063.97;;;14.60;72.19
3132;BME280;62090;52.330;9.104;2022-11-04T11:45:27;100053.75;;;14.51;72.28
3132;BME280;62090;52.330;9.104;2022-11-04T11:48:00;100075.09;;;14.69;72.37
3132;BME280;62090;52.330;9.104;2022-11-04T11:50:30;100070.84;;;14.55;72.70
3132;BME280;62090;52.330;9.104;2022-11-04T11:53:15;100017.88;;;14.35;72.77
3132;BME280;62090;52.330;9.104;2022-11-04T11:55:49;100041.78;;;14.59;72.59
3132;BME280;62090;52.330;9.104;2022-11-04T11:58:29;100056.19;;;14.87;72.44
3132;BME280;62090;52.330;9.104;2022-11-04T12:01:27;100080.09;;;14.97;72.54
3132;BME280;62090;52.330;9.104;2022-11-04T12:04:02;100064.75;;;14.95;72.24
3132;BME280;62090;52.330;9.104;2022-11-04T12:07:01;100065.63;;;14.84;72.43
3132;BME280;62090;52.330;9.104;2022-11-04T12:10:02;100065.59;;;14.87;72.54
3132;BME280;62090;52.330;9.104;2022-11-04T12:12:57;100055.41;;;14.70;73.16
3132;BME280;62090;52.330;9.104;2022-11-04T12:15:47;100063.13;;;14.62;73.34
3132;BME280;62090;52.330;9.104;2022-11-04T12:18:34;100067.44;;;14.50;73.15
3132;BME280;62090;52.330;9.104;2022-11-04T12:21:14;100073.44;;;14.43;73.39
3132;BME280;62090;52.330;9.104;2022-11-04T12:23:53;100042.69;;;14.21;73.62
3132;BME280;62090;52.330;9.104;2022-11-04T12:26:32;100038.41;;;14.26;74.04
3132;BME280;62090;52.330;9.104;2022-11-04T12:29:16;100066.59;;;14.48;72.83
3132;BME280;62090;52.330;9.104;2022-11-04T12:32:00;100073.41;;;14.52;72.95
3132;BME280;62090;52.330;9.104;2022-11-04T12:34:43;100074.28;;;14.51;72.79
3132;BME280;62090;52.330;9.104;2022-11-04T12:37:26;100081.13;;;14.49;72.95
3132;BME280;62090;52.330;9.104;2022-11-04T12:40:10;100067.47;;;14.31;72.32
3132;BME280;62090;52.330;9.104;2022-11-04T12:42:58;100085.38;;;14.34;72.68
3132;BME280;62090;52.330;9.104;2022-11-04T12:45:43;100102.50;;;14.43;72.49
3132;BME280;62090;52.330;9.104;2022-11-04T12:48:31;100099.94;;;14.42;71.64
3132;BME280;62090;52.330;9.104;2022-11-04T12:51:09;100083.72;;;14.38;71.98
3132;BME280;62090;52.330;9.104;2022-11-04T12:54:07;100111.03;;;14.59;71.85
3132;BME280;62090;52.330;9.104;2022-11-04T12:56:49;100099.03;;;14.64;72.23
3132;BME280;62090;52.330;9.104;2022-11-04T12:59:46;100115.28;;;14.69;71.85
3132;BME280;62090;52.330;9.104;2022-11-04T13:02:24;100081.94;;;14.60;72.51
3132;BME280;62090;52.330;9.104;2022-11-04T13:05:00;100117.78;;;14.89;71.91
3132;BME280;62090;52.330;9.104;2022-11-04T13:07:38;100104.09;;;14.80;71.10
3132;BME280;62090;52.330;9.104;2022-11-04T13:10:19;100116.09;;;14.85;70.90
3132;BME280;62090;52.330;9.104;2022-11-04T13:12:54;100115.19;;;14.87;71.07
3132;BME280;62090;52.330;9.104;2022-11-04T13:15:29;100123.78;;;14.83;70.70
3132;BME280;62090;52.330;9.104;2022-11-04T13:18:05;100102.44;;;14.72;71.12
3132;BME280;62090;52.330;9.104;2022-11-04T13:20:42;100125.47;;;14.87;71.35
3132;BME280;62090;52.330;9.104;2022-11-04T13:23:17;100112.63;;;14.92;71.26
3132;BME280;62090;52.330;9.104;2022-11-04T13:25:52;100117.72;;;15.05;70.85
3132;BME280;62090;52.330;9.104;2022-11-04T13:28:25;100129.56;;;15.29;71.11
3132;BME280;62090;52.330;9.104;2022-11-04T13:31:02;100115.94;;;15.23;70.35
3132;BME280;62090;52.330;9.104;2022-11-04T13:33:42;100135.50;;;15.45;70.48
3132;BME280;62090;52.330;9.104;2022-11-04T13:36:23;100140.66;;;15.42;69.47
3132;BME280;62090;52.330;9.104;2022-11-04T13:38:59;100142.38;;;15.41;70.08
3132;BME280;62090;52.330;9.104;2022-11-04T13:41:45;100139.81;;;15.43;69.61
3132;BME280;62090;52.330;9.104;2022-11-04T13:44:25;100128.69;;;15.38;70.25
3132;BME280;62090;52.330;9.104;2022-11-04T13:47:01;100137.22;;;15.52;69.23
3132;BME280;62090;52.330;9.104;2022-11-04T13:49:34;100130.38;;;15.54;68.84
3132;BME280;62090;52.330;9.104;2022-11-04T13:52:08;100145.75;;;15.55;68.29